Time;durP1;ratioP1;P1;durP2;ratioP2;P2;SDS_P1;SDS_P2;PMS_P1;PMS_P2;Temp;Humidity;BMP_temperature;BMP_pressure;BME280_temperature;BME280_humidity;BME280_pressure;Samples;Min_cycle;Max_cycle;Signal;HPM_P1;HPM_P2
2023/01/24 00:01:43;;;;;;;25.35;13.88;;;;;;;;;;5079813;28;20080;-77
2023/01/24 00:04:10;;;;;;;21.60;12.77;;;;;;;;;;5079534;28;20131;-77
2023/01/24 00:06:37;;;;;;;23.98;13.57;;;;;;;;;;5078562;28;20131;-77
2023/01/24 00:09:04;;;;;;;22.88;12.55;;;;;;;;;;5078766;28;20055;-77
2023/01/24 00:11:31;;;;;;;23.77;12.35;;;;;;;;;;5078216;28;20049;-77
2023/01/24 00:13:58;;;;;;;25.23;12.65;;;;;;;;;;5079410;28;20084;-77
2023/01/24 00:16:26;;;;;;;26.50;12.88;;;;;;;;;;5080627;28;20044;-77
2023/01/24 00:18:53;;;;;;;20.42;11.70;;;;;;;;;;5079088;28;20414;-77
2023/01/24 00:21:21;;;;;;;21.92;13.30;;;;;;;;;;5077882;28;20499;-78
2023/01/24 00:23:50;;;;;;;22.38;12.88;;;;;;;;;;5078561;28;20054;-77
2023/01/24 00:26:17;;;;;;;19.80;11.48;;;;;;;;;;5080564;28;20103;-78
2023/01/24 00:28:45;;;;;;;18.70;11.52;;;;;;;;;;5083954;28;20112;-78
2023/01/24 00:31:12;;;;;;;20.67;12.02;;;;;;;;;;5083284;28;20083;-77
2023/01/24 00:33:39;;;;;;;20.92;12.82;;;;;;;;;;5081496;28;20107;-78
2023/01/24 00:36:07;;;;;;;23.35;12.70;;;;;;;;;;5082179;28;20408;-77
2023/01/24 00:38:34;;;;;;;22.50;12.02;;;;;;;;;;5082262;28;20087;-77
2023/01/24 00:41:01;;;;;;;23.55;12.07;;;;;;;;;;5080488;28;20491;-77
2023/01/24 00:43:29;;;;;;;24.73;12.95;;;;;;;;;;5081194;28;20112;-77
2023/01/24 00:45:56;;;;;;;24.33;12.70;;;;;;;;;;5082931;28;20079;-78
2023/01/24 00:48:24;;;;;;;26.60;14.45;;;;;;;;;;5083063;28;20044;-78
2023/01/24 00:50:51;;;;;;;27.70;14.52;;;;;;;;;;5080551;28;20049;-77
2023/01/24 00:53:19;;;;;;;22.33;12.82;;;;;;;;;;5079907;28;20049;-77
2023/01/24 00:55:47;;;;;;;29.88;15.65;;;;;;;;;;5078099;28;20482;-78
2023/01/24 00:58:14;;;;;;;24.67;14.50;;;;;;;;;;5078338;28;20048;-77
2023/01/24 01:00:42;;;;;;;24.20;13.82;;;;;;;;;;5077079;28;20131;-79
2023/01/24 01:03:13;;;;;;;24.27;13.80;;;;;;;;;;5079033;28;20072;-77
2023/01/24 01:05:41;;;;;;;26.02;14.52;;;;;;;;;;5078716;28;20098;-77
2023/01/24 01:08:08;;;;;;;26.25;13.07;;;;;;;;;;5078371;28;20087;-77
2023/01/24 01:10:35;;;;;;;27.98;14.75;;;;;;;;;;5076778;28;20048;-77
2023/01/24 01:13:03;;;;;;;27.33;15.20;;;;;;;;;;5078509;28;20135;-77
2023/01/24 01:15:30;;;;;;;24.80;14.43;;;;;;;;;;5077459;28;20199;-77
2023/01/24 01:17:58;;;;;;;26.10;13.57;;;;;;;;;;5077998;28;20509;-77
2023/01/24 01:20:26;;;;;;;28.30;14.90;;;;;;;;;;5077841;28;20108;-78
2023/01/24 01:22:53;;;;;;;26.80;13.82;;;;;;;;;;5077775;28;20455;-77
2023/01/24 01:25:21;;;;;;;31.38;15.80;;;;;;;;;;5078545;28;20048;-77
2023/01/24 01:27:48;;;;;;;29.33;14.52;;;;;;;;;;5076754;28;20060;-78
2023/01/24 01:30:15;;;;;;;27.50;14.55;;;;;;;;;;5078199;28;20112;-78
2023/01/24 01:32:42;;;;;;;27.77;14.45;;;;;;;;;;5077959;28;20056;-77
2023/01/24 01:35:10;;;;;;;26.60;13.98;;;;;;;;;;5075952;28;20055;-78
2023/01/24 01:37:37;;;;;;;29.73;15.20;;;;;;;;;;5078126;28;20056;-77
2023/01/24 01:40:04;;;;;;;29.65;15.23;;;;;;;;;;5076921;28;20513;-78
2023/01/24 01:42:41;;;;;;;29.15;14.80;;;;;;;;;;5078658;28;20044;-77
2023/01/24 01:45:30;;;;;;;30.38;15.80;;;;;;;;;;5079274;28;20080;-77
2023/01/24 01:47:58;;;;;;;26.40;14.18;;;;;;;;;;5078210;28;20048;-77
2023/01/24 01:50:32;;;;;;;26.45;13.98;;;;;;;;;;5078831;28;20480;-78
2023/01/24 01:52:59;;;;;;;25.88;14.48;;;;;;;;;;5079101;28;20053;-78
2023/01/24 01:55:30;;;;;;;25.95;14.00;;;;;;;;;;5077582;28;20057;-78
2023/01/24 01:57:58;;;;;;;27.55;14.70;;;;;;;;;;5077765;28;20048;-78
2023/01/24 02:00:26;;;;;;;26.58;14.60;;;;;;;;;;5079024;28;20505;-78
2023/01/24 02:05:57;;;;;;;27.90;14.95;;;;;;;;;;5083328;28;20098;-78
2023/01/24 02:08:25;;;;;;;24.48;13.88;;;;;;;;;;5081419;28;20048;-79
2023/01/24 02:13:43;;;;;;;24.75;13.88;;;;;;;;;;5079777;28;20135;-78
2023/01/24 02:16:14;;;;;;;29.90;14.05;;;;;;;;;;5079135;28;20087;-78
2023/01/24 02:18:42;;;;;;;25.67;13.95;;;;;;;;;;5077982;28;20055;-78
2023/01/24 02:21:11;;;;;;;23.25;12.88;;;;;;;;;;5076898;28;20124;-77
2023/01/24 02:23:47;;;;;;;20.17;12.18;;;;;;;;;;5079751;28;20076;-78
2023/01/24 02:26:16;;;;;;;23.95;13.63;;;;;;;;;;5079262;28;20088;-78
2023/01/24 02:28:46;;;;;;;25.45;14.00;;;;;;;;;;5081696;28;20060;-78
2023/01/24 02:31:13;;;;;;;26.52;14.25;;;;;;;;;;5079777;28;20052;-78
2023/01/24 02:33:40;;;;;;;27.50;14.52;;;;;;;;;;5080144;28;20048;-78
2023/01/24 02:36:21;;;;;;;22.92;13.20;;;;;;;;;;5080222;28;20040;-78
2023/01/24 02:38:55;;;;;;;23.00;13.10;;;;;;;;;;5080416;28;20088;-78
2023/01/24 02:41:26;;;;;;;23.15;13.45;;;;;;;;;;5081402;22;20060;-86
2023/01/24 02:43:55;;;;;;;26.48;13.70;;;;;;;;;;5073100;28;20045;-87
2023/01/24 02:46:22;;;;;;;26.27;14.07;;;;;;;;;;5073209;28;20055;-86
2023/01/24 02:48:50;;;;;;;20.75;12.52;;;;;;;;;;5072094;28;20505;-87
2023/01/24 02:54:04;;;;;;;22.25;13.05;;;;;;;;;;5073069;28;20048;-87
2023/01/24 02:59:17;;;;;;;22.35;12.32;;;;;;;;;;5073167;28;20390;-87
2023/01/24 03:01:44;;;;;;;19.25;11.95;;;;;;;;;;5073100;28;20131;-86
2023/01/24 03:04:13;;;;;;;19.50;11.25;;;;;;;;;;5072990;28;20056;-87
2023/01/24 03:06:40;;;;;;;25.25;13.15;;;;;;;;;;5072576;28;20496;-86
2023/01/24 03:09:17;;;;;;;21.67;12.13;;;;;;;;;;5073035;28;20478;-87
2023/01/24 03:11:48;;;;;;;19.73;12.25;;;;;;;;;;5071599;28;20163;-86
2023/01/24 03:36:31;;;;;;;22.80;13.50;;;;;;;;;;5086402;28;20060;-86
2023/01/24 03:41:44;;;;;;;27.20;14.10;;;;;;;;;;5075759;28;20056;-86
2023/01/24 03:44:12;;;;;;;22.95;13.75;;;;;;;;;;5074966;28;20498;-86
2023/01/24 03:46:39;;;;;;;24.23;14.07;;;;;;;;;;5074763;28;20051;-86
2023/01/24 03:49:07;;;;;;;21.38;13.00;;;;;;;;;;5075894;28;20404;-85
2023/01/24 03:54:21;;;;;;;24.17;14.65;;;;;;;;;;5075706;28;20135;-86
2023/01/24 03:56:48;;;;;;;23.88;14.35;;;;;;;;;;5074507;28;20071;-86
2023/01/24 03:59:16;;;;;;;26.40;14.55;;;;;;;;;;5074770;28;20044;-85
2023/01/24 04:01:43;;;;;;;22.77;14.20;;;;;;;;;;5074556;28;20059;-86
2023/01/24 04:04:11;;;;;;;26.63;15.20;;;;;;;;;;5075578;28;20052;-86
2023/01/24 04:06:38;;;;;;;29.55;15.80;;;;;;;;;;5074146;28;20048;-86
2023/01/24 04:09:05;;;;;;;24.90;15.10;;;;;;;;;;5074412;28;20048;-85
2023/01/24 04:11:32;;;;;;;25.95;15.63;;;;;;;;;;5074403;28;20063;-86
2023/01/24 04:14:00;;;;;;;28.77;15.80;;;;;;;;;;5074407;28;20059;-89
2023/01/24 04:16:27;;;;;;;24.75;15.48;;;;;;;;;;5074403;28;20059;-87
2023/01/24 04:18:54;;;;;;;25.70;16.67;;;;;;;;;;5074197;28;20044;-86
2023/01/24 04:21:21;;;;;;;27.67;16.55;;;;;;;;;;5074217;28;20049;-85
2023/01/24 04:23:48;;;;;;;25.58;15.73;;;;;;;;;;5073741;28;20040;-86
2023/01/24 04:26:16;;;;;;;33.00;16.73;;;;;;;;;;5074253;28;20098;-86
2023/01/24 04:28:43;;;;;;;27.80;15.65;;;;;;;;;;5074058;28;20485;-86
2023/01/24 04:31:10;;;;;;;27.20;16.85;;;;;;;;;;5073813;28;20353;-85
2023/01/24 04:33:37;;;;;;;30.63;16.42;;;;;;;;;;5073939;28;20170;-86
2023/01/24 04:36:05;;;;;;;25.48;16.20;;;;;;;;;;5072826;28;20074;-86
2023/01/24 04:38:32;;;;;;;25.85;16.33;;;;;;;;;;5073987;28;20044;-86
2023/01/24 04:41:02;;;;;;;25.63;14.95;;;;;;;;;;5073926;28;20404;-86
2023/01/24 04:43:30;;;;;;;24.50;15.75;;;;;;;;;;5074004;28;20084;-87
2023/01/24 04:45:58;;;;;;;28.55;16.60;;;;;;;;;;5074103;28;20058;-86
2023/01/24 04:48:25;;;;;;;26.52;16.27;;;;;;;;;;5078194;28;20060;-86
2023/01/24 04:50:52;;;;;;;29.65;16.65;;;;;;;;;;5077171;28;20072;-86
2023/01/24 04:53:19;;;;;;;27.83;16.48;;;;;;;;;;5073575;28;20479;-85
2023/01/24 04:55:47;;;;;;;25.50;16.45;;;;;;;;;;5072978;28;20062;-86
2023/01/24 04:58:14;;;;;;;23.35;14.23;;;;;;;;;;5074726;28;20048;-86
2023/01/24 05:00:41;;;;;;;26.83;14.55;;;;;;;;;;5073112;28;20048;-85
2023/01/24 05:03:08;;;;;;;27.10;16.20;;;;;;;;;;5073582;28;20059;-86
2023/01/24 05:05:35;;;;;;;28.13;14.95;;;;;;;;;;5073190;28;20056;-85
2023/01/24 05:08:02;;;;;;;23.38;14.05;;;;;;;;;;5073305;28;20058;-86
2023/01/24 05:10:30;;;;;;;25.70;14.80;;;;;;;;;;5073017;28;20071;-86
2023/01/24 05:12:57;;;;;;;24.17;14.52;;;;;;;;;;5072850;28;20516;-85
2023/01/24 05:15:25;;;;;;;23.80;14.57;;;;;;;;;;5072647;28;20052;-86
2023/01/24 05:17:53;;;;;;;21.30;13.88;;;;;;;;;;5073232;28;20131;-85
2023/01/24 05:20:20;;;;;;;22.02;13.98;;;;;;;;;;5072993;28;20133;-86
2023/01/24 05:22:48;;;;;;;27.05;15.65;;;;;;;;;;5073074;28;20053;-86
2023/01/24 05:25:16;;;;;;;26.73;14.93;;;;;;;;;;5072971;28;20059;-86
2023/01/24 05:27:43;;;;;;;30.40;16.63;;;;;;;;;;5072747;28;20060;-86
2023/01/24 05:30:11;;;;;;;22.73;14.75;;;;;;;;;;5072835;28;20052;-85
2023/01/24 05:32:39;;;;;;;26.33;15.60;;;;;;;;;;5072957;28;20532;-86
2023/01/24 05:35:06;;;;;;;21.88;13.60;;;;;;;;;;5072727;28;20078;-86
2023/01/24 05:37:36;;;;;;;23.35;14.23;;;;;;;;;;5072261;28;20047;-86
2023/01/24 05:40:04;;;;;;;25.13;14.82;;;;;;;;;;5072466;28;20048;-86
2023/01/24 05:42:31;;;;;;;26.95;14.90;;;;;;;;;;5072633;28;20142;-86
2023/01/24 05:44:58;;;;;;;25.02;14.50;;;;;;;;;;5072435;28;20056;-85
2023/01/24 05:47:25;;;;;;;28.42;14.75;;;;;;;;;;5072121;28;20040;-86
2023/01/24 05:49:52;;;;;;;24.95;14.75;;;;;;;;;;5072757;28;20056;-86
2023/01/24 05:52:22;;;;;;;27.73;14.90;;;;;;;;;;5072627;28;20135;-86
2023/01/24 05:54:49;;;;;;;25.33;14.23;;;;;;;;;;5072543;28;20051;-85
2023/01/24 05:57:17;;;;;;;25.05;14.32;;;;;;;;;;5072461;28;20139;-86
2023/01/24 05:59:44;;;;;;;39.95;24.92;;;;;;;;;;5072655;28;20502;-85
2023/01/24 06:02:11;;;;;;;34.83;22.70;;;;;;;;;;5075847;28;20453;-86
2023/01/24 06:04:39;;;;;;;31.50;20.50;;;;;;;;;;5074507;28;20071;-86
2023/01/24 06:07:06;;;;;;;52.38;33.65;;;;;;;;;;5072101;28;20056;-86
2023/01/24 06:09:33;;;;;;;36.75;23.70;;;;;;;;;;5072455;28;20519;-86
2023/01/24 06:12:00;;;;;;;35.33;22.95;;;;;;;;;;5072440;28;20060;-85
2023/01/24 06:14:27;;;;;;;35.15;22.48;;;;;;;;;;5072231;28;20055;-86
2023/01/24 06:16:55;;;;;;;43.58;26.00;;;;;;;;;;5072207;28;20059;-86
2023/01/24 06:19:22;;;;;;;29.00;18.23;;;;;;;;;;5072151;28;20051;-86
2023/01/24 06:21:52;;;;;;;22.77;14.93;;;;;;;;;;5072216;28;20408;-86
2023/01/24 06:24:21;;;;;;;27.77;17.08;;;;;;;;;;5072703;28;20040;-86
2023/01/24 06:26:49;;;;;;;23.02;14.88;;;;;;;;;;5072057;28;20382;-86
2023/01/24 06:29:17;;;;;;;26.85;16.75;;;;;;;;;;5072257;28;20131;-85
2023/01/24 06:31:55;;;;;;;32.58;19.70;;;;;;;;;;5071495;28;20049;-86
2023/01/24 06:34:35;;;;;;;30.63;19.45;;;;;;;;;;5051687;28;20079;-85
2023/01/24 06:37:11;;;;;;;26.90;15.13;;;;;;;;;;5052031;28;20088;-86
2023/01/24 06:39:39;;;;;;;25.55;15.20;;;;;;;;;;5052060;28;20049;-86
2023/01/24 06:42:06;;;;;;;21.95;13.48;;;;;;;;;;5051681;28;20056;-85
2023/01/24 06:44:34;;;;;;;24.25;14.18;;;;;;;;;;5051803;28;20049;-86
2023/01/24 06:47:01;;;;;;;27.00;15.07;;;;;;;;;;5052992;28;20493;-85
2023/01/24 06:49:28;;;;;;;22.02;14.00;;;;;;;;;;5051961;28;20060;-86
2023/01/24 06:51:55;;;;;;;27.10;15.75;;;;;;;;;;5051595;28;20512;-85
2023/01/24 06:54:22;;;;;;;30.88;15.50;;;;;;;;;;5052074;28;20063;-86
2023/01/24 06:56:49;;;;;;;31.65;21.20;;;;;;;;;;5051404;28;20439;-86
2023/01/24 06:59:17;;;;;;;37.05;22.63;;;;;;;;;;5053218;28;20409;-85
2023/01/24 07:01:44;;;;;;;25.40;15.88;;;;;;;;;;5055654;28;20481;-86
2023/01/24 07:04:11;;;;;;;27.55;18.65;;;;;;;;;;5056665;28;20560;-86
2023/01/24 07:06:38;;;;;;;30.15;16.95;;;;;;;;;;5055171;28;20494;-86
2023/01/24 07:09:06;;;;;;;28.40;15.88;;;;;;;;;;5055358;28;20063;-85
2023/01/24 07:11:33;;;;;;;27.27;17.40;;;;;;;;;;5055305;28;20055;-86
2023/01/24 07:14:00;;;;;;;35.53;22.23;;;;;;;;;;5055147;28;20055;-85
2023/01/24 07:16:30;;;;;;;25.55;14.63;;;;;;;;;;5058922;28;20059;-85
2023/01/24 07:18:57;;;;;;;23.52;14.50;;;;;;;;;;5054915;28;20041;-86
2023/01/24 07:21:25;;;;;;;21.88;13.73;;;;;;;;;;5055163;28;20385;-85
2023/01/24 07:23:56;;;;;;;23.25;14.13;;;;;;;;;;5055228;28;20397;-86
2023/01/24 07:26:23;;;;;;;24.52;14.85;;;;;;;;;;5056251;28;20052;-87
2023/01/24 07:28:50;;;;;;;26.27;15.98;;;;;;;;;;5055026;28;20477;-86
2023/01/24 07:31:18;;;;;;;21.65;14.45;;;;;;;;;;5055384;28;20057;-86
2023/01/24 07:33:45;;;;;;;24.90;12.93;;;;;;;;;;5055218;28;20049;-87
2023/01/24 07:36:13;;;;;;;19.63;12.48;;;;;;;;;;5054374;28;20044;-87
2023/01/24 07:38:40;;;;;;;19.35;12.73;;;;;;;;;;5056015;28;20059;-87
2023/01/24 07:41:11;;;;;;;21.60;12.98;;;;;;;;;;5055227;28;20053;-87
2023/01/24 07:43:40;;;;;;;18.77;11.77;;;;;;;;;;5055421;28;20055;-87
2023/01/24 07:46:07;;;;;;;17.40;11.23;;;;;;;;;;5054740;28;20060;-86
2023/01/24 07:48:35;;;;;;;21.38;11.40;;;;;;;;;;5055031;28;20053;-87
2023/01/24 07:51:02;;;;;;;17.77;10.32;;;;;;;;;;5055107;28;20044;-87
2023/01/24 07:53:29;;;;;;;17.60;11.20;;;;;;;;;;5055589;28;20056;-88
2023/01/24 07:56:00;;;;;;;16.88;10.27;;;;;;;;;;5058042;28;20079;-88
2023/01/24 07:58:29;;;;;;;14.98;10.02;;;;;;;;;;5056041;28;20048;-88
2023/01/24 08:00:57;;;;;;;31.08;17.00;;;;;;;;;;5054655;28;20099;-87
2023/01/24 08:03:24;;;;;;;39.15;19.45;;;;;;;;;;5054732;28;20300;-88
2023/01/24 08:05:51;;;;;;;41.95;21.02;;;;;;;;;;5054361;28;20139;-87
2023/01/24 08:08:19;;;;;;;26.60;15.43;;;;;;;;;;5070030;28;20152;-88
2023/01/24 08:10:46;;;;;;;44.80;23.38;;;;;;;;;;5074149;28;20044;-89
2023/01/24 08:13:14;;;;;;;43.60;23.40;;;;;;;;;;5074474;28;20053;-88
2023/01/24 08:15:41;;;;;;;29.35;15.63;;;;;;;;;;5074253;28;20044;-88
2023/01/24 08:18:08;;;;;;;56.97;26.90;;;;;;;;;;5074529;28;20055;-88
2023/01/24 08:20:35;;;;;;;36.88;18.45;;;;;;;;;;5074315;28;20091;-86
2023/01/24 08:23:03;;;;;;;33.33;17.75;;;;;;;;;;5074422;28;20524;-88
2023/01/24 08:25:31;;;;;;;50.63;23.73;;;;;;;;;;5074084;28;20041;-88
2023/01/24 08:27:59;;;;;;;39.03;18.45;;;;;;;;;;5074293;28;20484;-88
2023/01/24 08:30:26;;;;;;;44.58;21.80;;;;;;;;;;5090057;28;20040;-88
2023/01/24 08:33:00;;;;;;;30.83;17.73;;;;;;;;;;5074239;28;20051;-88
2023/01/24 08:35:27;;;;;;;30.02;18.90;;;;;;;;;;5073937;28;20053;-88
2023/01/24 08:37:55;;;;;;;23.92;15.07;;;;;;;;;;5074105;28;20048;-88
2023/01/24 08:40:22;;;;;;;18.83;11.50;;;;;;;;;;5073785;28;20051;-88
2023/01/24 08:42:49;;;;;;;18.90;12.35;;;;;;;;;;5072585;28;20048;-88
2023/01/24 08:45:17;;;;;;;13.15;9.73;;;;;;;;;;5074237;28;20049;-88
2023/01/24 08:47:44;;;;;;;9.35;7.80;;;;;;;;;;5073929;28;20060;-88
2023/01/24 08:50:14;;;;;;;13.77;8.90;;;;;;;;;;5074061;28;20412;-88
2023/01/24 08:52:41;;;;;;;12.35;8.82;;;;;;;;;;5073864;28;20507;-88
2023/01/24 08:55:09;;;;;;;15.18;8.57;;;;;;;;;;5073939;28;20084;-87
2023/01/24 08:57:36;;;;;;;10.20;7.60;;;;;;;;;;5074594;28;20060;-87
2023/01/24 09:00:03;;;;;;;40.40;24.35;;;;;;;;;;5073616;28;20059;-88
2023/01/24 09:02:32;;;;;;;19.67;12.68;;;;;;;;;;5073751;28;20048;-87
2023/01/24 09:04:59;;;;;;;17.23;9.68;;;;;;;;;;5073928;28;20058;-87
2023/01/24 09:07:26;;;;;;;18.17;11.30;;;;;;;;;;5073459;28;20469;-87
2023/01/24 09:09:53;;;;;;;23.13;14.02;;;;;;;;;;5073491;28;20405;-87
2023/01/24 09:12:21;;;;;;;52.20;23.85;;;;;;;;;;5073246;28;20048;-87
2023/01/24 09:14:48;;;;;;;44.33;19.90;;;;;;;;;;5073074;28;20049;-87
2023/01/24 09:17:15;;;;;;;32.22;16.42;;;;;;;;;;5073168;28;20056;-87
2023/01/24 09:19:42;;;;;;;72.38;33.13;;;;;;;;;;5074197;28;20485;-87
2023/01/24 09:22:09;;;;;;;33.40;18.05;;;;;;;;;;5073594;28;20481;-88
2023/01/24 09:24:37;;;;;;;56.15;27.80;;;;;;;;;;5072993;28;20468;-88
2023/01/24 09:27:04;;;;;;;32.20;16.15;;;;;;;;;;5074307;28;20063;-87
2023/01/24 09:29:31;;;;;;;28.75;16.30;;;;;;;;;;5072949;28;20055;-87
2023/01/24 09:31:58;;;;;;;22.15;13.88;;;;;;;;;;5073265;28;20062;-87
2023/01/24 09:34:25;;;;;;;50.47;23.75;;;;;;;;;;5072924;28;20049;-87
2023/01/24 09:36:53;;;;;;;29.77;15.57;;;;;;;;;;5072003;28;20072;-87
2023/01/24 09:39:20;;;;;;;24.52;14.93;;;;;;;;;;5073008;28;20049;-88
2023/01/24 09:42:01;;;;;;;23.05;13.38;;;;;;;;;;5072359;28;20101;-88
2023/01/24 09:44:40;;;;;;;15.48;9.13;;;;;;;;;;5076641;28;20135;-88
2023/01/24 09:47:16;;;;;;;13.25;8.68;;;;;;;;;;5073175;28;20063;-88
2023/01/24 09:49:51;;;;;;;18.02;9.55;;;;;;;;;;5072790;28;20143;-87
2023/01/24 09:52:32;;;;;;;12.88;8.60;;;;;;;;;;5072676;28;20055;-87
2023/01/24 09:54:59;;;;;;;17.70;8.32;;;;;;;;;;5073160;28;20053;-88
2023/01/24 09:57:31;;;;;;;15.75;9.27;;;;;;;;;;5072215;28;20394;-87
2023/01/24 10:00:04;;;;;;;12.13;8.45;;;;;;;;;;5072769;28;20567;-88
2023/01/24 10:02:32;;;;;;;14.13;9.68;;;;;;;;;;5072599;28;20143;-87
2023/01/24 10:04:59;;;;;;;13.93;8.68;;;;;;;;;;5072558;28;20053;-87
2023/01/24 10:07:52;;;;;;;11.98;8.82;;;;;;;;;;5072489;28;20139;-87
2023/01/24 10:10:40;;;;;;;12.10;8.15;;;;;;;;;;5072623;28;20580;-87
2023/01/24 10:13:24;;;;;;;11.52;8.02;;;;;;;;;;5072555;28;20052;-88
2023/01/24 10:15:51;;;;;;;;;;;;;;;;;;5072921;28;20048;-88
2023/01/24 10:18:31;;;;;;;11.85;8.02;;;;;;;;;;5072164;28;19921;-88
2023/01/24 10:21:17;;;;;;;12.40;8.13;;;;;;;;;;5072384;28;20139;-88
2023/01/24 10:23:47;;;;;;;17.75;10.73;;;;;;;;;;5072416;28;20051;-87
2023/01/24 10:26:19;;;;;;;54.55;26.75;;;;;;;;;;5072340;28;20051;-88
2023/01/24 10:28:49;;;;;;;14.18;9.88;;;;;;;;;;5072281;28;20136;-88
2023/01/24 10:31:28;;;;;;;10.68;7.97;;;;;;;;;;5072549;28;20132;-88
2023/01/24 10:33:59;;;;;;;14.10;9.75;;;;;;;;;;5074964;28;20087;-87
2023/01/24 10:36:30;;;;;;;15.32;10.07;;;;;;;;;;5076311;28;20072;-87
2023/01/24 10:38:58;;;;;;;13.23;9.73;;;;;;;;;;5076617;28;20044;-87
2023/01/24 10:41:26;;;;;;;15.20;10.45;;;;;;;;;;5076034;28;20140;-88
2023/01/24 10:43:56;;;;;;;13.68;9.23;;;;;;;;;;5076576;28;20047;-87
2023/01/24 10:46:42;;;;;;;12.23;8.40;;;;;;;;;;5076214;28;20595;-88
2023/01/24 10:49:15;;;;;;;13.43;9.23;;;;;;;;;;5076352;28;20489;-87
2023/01/24 10:51:42;;;;;;;28.42;14.45;;;;;;;;;;5076334;28;20477;-87
2023/01/24 10:54:22;;;;;;;16.23;9.98;;;;;;;;;;5077408;28;20140;-87
2023/01/24 10:56:49;;;;;;;15.35;10.23;;;;;;;;;;5080699;28;20075;-87
2023/01/24 10:59:17;;;;;;;12.40;8.73;;;;;;;;;;5087293;28;20123;-87
2023/01/24 11:01:48;;;;;;;14.45;9.75;;;;;;;;;;5076051;28;20060;-87
2023/01/24 11:04:23;;;;;;;9.45;7.35;;;;;;;;;;5076657;28;20052;-87
2023/01/24 11:06:51;;;;;;;12.80;8.15;;;;;;;;;;5079623;28;20063;-87
2023/01/24 11:09:20;;;;;;;9.68;7.43;;;;;;;;;;5075902;28;20445;-87
2023/01/24 11:11:50;;;;;;;8.82;7.25;;;;;;;;;;5075720;28;20489;-87
2023/01/24 11:14:20;;;;;;;10.70;7.50;;;;;;;;;;5075540;28;20090;-87
2023/01/24 11:16:48;;;;;;;12.40;7.63;;;;;;;;;;5075333;28;20143;-88
2023/01/24 11:19:32;;;;;;;10.35;8.10;;;;;;;;;;5075609;28;20053;-88
2023/01/24 11:21:59;;;;;;;;;;;;;;;;;;5076040;28;20070;-89
2023/01/24 11:24:27;;;;;;;10.70;7.90;;;;;;;;;;5075803;28;19950;-89
2023/01/24 11:26:56;;;;;;;17.20;14.48;;;;;;;;;;5075496;28;20425;-89
2023/01/24 11:29:24;;;;;;;11.93;8.30;;;;;;;;;;5075780;28;20503;-89
2023/01/24 11:31:54;;;;;;;8.98;7.25;;;;;;;;;;5075694;28;20152;-89
2023/01/24 11:34:36;;;;;;;9.38;6.32;;;;;;;;;;5075636;28;20576;-89
2023/01/24 11:37:04;;;;;;;10.10;7.03;;;;;;;;;;5075166;28;20054;-89
2023/01/24 11:39:48;;;;;;;9.43;7.43;;;;;;;;;;5075397;28;20048;-89
2023/01/24 11:42:15;;;;;;;;;;;;;;;;;;5075608;28;20061;-89
2023/01/24 11:44:50;;;;;;;21.00;12.05;;;;;;;;;;5074598;28;20008;-89
2023/01/24 11:47:21;;;;;;;34.35;16.85;;;;;;;;;;5075368;28;20049;-90
2023/01/24 11:49:49;;;;;;;28.83;14.52;;;;;;;;;;5075386;28;20101;-89
2023/01/24 11:52:35;;;;;;;25.20;17.80;;;;;;;;;;5075495;28;20079;-89
2023/01/24 11:55:08;;;;;;;34.90;18.15;;;;;;;;;;5074953;28;20052;-90
2023/01/24 11:57:35;;;;;;;28.77;15.05;;;;;;;;;;5074928;28;20519;-89
2023/01/24 12:00:41;;;;;;;61.80;38.08;;;;;;;;;;5075132;28;20052;-90
2023/01/24 12:03:28;;;;;;;41.78;23.45;;;;;;;;;;5037523;28;20053;-90
2023/01/24 12:06:00;;;;;;;48.83;28.83;;;;;;;;;;5037349;28;20049;-90
2023/01/24 12:08:46;;;;;;;24.90;15.77;;;;;;;;;;5067900;28;20061;-89
2023/01/24 12:11:13;;;;;;;87.15;35.28;;;;;;;;;;5084340;28;20048;-90
2023/01/24 12:14:25;;;;;;;93.82;35.00;;;;;;;;;;5080142;28;20045;-89
2023/01/24 12:17:11;;;;;;;36.83;17.42;;;;;;;;;;5040056;28;20160;-89
2023/01/24 12:19:57;;;;;;;112.72;43.78;;;;;;;;;;5075710;28;20056;-89
2023/01/24 12:22:24;;;;;;;;;;;;;;;;;;5076015;28;20515;-89
2023/01/24 12:24:54;;;;;;;80.88;35.22;;;;;;;;;;5074696;28;19920;-89
2023/01/24 12:27:24;;;;;;;92.57;37.05;;;;;;;;;;5074476;28;20151;-89
2023/01/24 12:29:57;;;;;;;29.45;14.93;;;;;;;;;;5073776;28;20415;-90
2023/01/24 12:32:32;;;;;;;29.05;15.48;;;;;;;;;;5074189;28;20094;-90
2023/01/24 12:35:05;;;;;;;25.88;15.75;;;;;;;;;;5074310;28;20466;-89
2023/01/24 12:37:39;;;;;;;12.18;8.50;;;;;;;;;;5073557;28;20049;-88
2023/01/24 12:40:12;;;;;;;10.32;7.13;;;;;;;;;;5074415;28;20049;-89
2023/01/24 12:42:43;;;;;;;10.07;7.35;;;;;;;;;;5074310;28;20058;-89
2023/01/24 12:45:13;;;;;;;10.52;7.28;;;;;;;;;;5074416;28;20048;-89
2023/01/24 12:48:06;;;;;;;9.05;7.03;;;;;;;;;;5074126;28;20056;-89
2023/01/24 12:50:46;;;;;;;9.07;7.30;;;;;;;;;;5073784;28;20124;-89
2023/01/24 12:53:22;;;;;;;10.90;7.30;;;;;;;;;;5073441;28;20056;-89
2023/01/24 12:55:52;;;;;;;12.38;7.90;;;;;;;;;;5073684;28;20408;-88
2023/01/24 12:58:22;;;;;;;10.93;8.57;;;;;;;;;;5073251;28;20125;-88
2023/01/24 13:01:09;;;;;;;10.73;7.78;;;;;;;;;;5074116;28;20052;-88
2023/01/24 13:03:49;;;;;;;26.80;15.80;;;;;;;;;;5074002;28;20408;-90
2023/01/24 13:06:30;;;;;;;51.13;23.92;;;;;;;;;;5073848;28;20221;-88
2023/01/24 13:09:14;;;;;;;79.47;38.97;;;;;;;;;;5073727;28;20062;-88
2023/01/24 13:11:48;;;;;;;41.47;22.02;;;;;;;;;;5073713;28;20451;-88
2023/01/24 13:14:15;;;;;;;;;;;;;;;;;;5073721;28;20051;-88
2023/01/24 13:16:48;;;;;;;25.35;15.73;;;;;;;;;;5074349;28;19924;-89
2023/01/24 13:19:48;;;;;;;20.70;13.18;;;;;;;;;;5100121;28;20419;-80
2023/01/24 13:22:19;;;;;;;27.77;15.30;;;;;;;;;;5081318;28;20051;-80
2023/01/24 13:24:58;;;;;;;53.75;27.63;;;;;;;;;;5079157;28;20689;-80
2023/01/24 13:27:47;;;;;;;33.40;17.55;;;;;;;;;;5079554;28;20053;-79
2023/01/24 13:30:38;;;;;;;54.78;28.65;;;;;;;;;;5079511;28;20057;-80
2023/01/24 13:33:06;;;;;;;15.88;9.57;;;;;;;;;;5079139;28;20148;-80
2023/01/24 13:35:33;;;;;;;16.02;9.80;;;;;;;;;;5078882;28;20423;-80
2023/01/24 13:38:00;;;;;;;50.95;29.17;;;;;;;;;;5079412;28;20040;-80
2023/01/24 13:40:30;;;;;;;32.33;19.67;;;;;;;;;;5078476;28;20422;-80
2023/01/24 13:42:58;;;;;;;15.20;10.13;;;;;;;;;;5078732;28;20045;-81
2023/01/24 13:45:25;;;;;;;41.90;24.38;;;;;;;;;;5076880;28;20067;-80
2023/01/24 13:47:53;;;;;;;24.52;15.45;;;;;;;;;;5077997;28;20053;-80
2023/01/24 13:50:24;;;;;;;22.25;15.00;;;;;;;;;;5078771;28;20079;-81
2023/01/24 13:52:56;;;;;;;27.08;18.38;;;;;;;;;;5079061;28;20081;-81
2023/01/24 13:55:23;;;;;;;25.98;17.20;;;;;;;;;;5081963;28;20114;-80
2023/01/24 13:57:57;;;;;;;18.10;12.55;;;;;;;;;;5080868;28;20048;-81
2023/01/24 14:00:24;;;;;;;;;;;;;;;;;;5078325;28;20112;-79
2023/01/24 14:02:51;;;;;;;17.42;11.23;;;;;;;;;;5079839;28;19921;-81
2023/01/24 14:05:31;;;;;;;14.13;8.82;;;;;;;;;;5081670;28;20056;-80
2023/01/24 14:08:03;;;;;;;12.35;8.43;;;;;;;;;;5081816;28;20106;-80
2023/01/24 14:10:38;;;;;;;11.50;8.73;;;;;;;;;;5078885;28;20116;-80
2023/01/24 14:13:24;;;;;;;14.48;9.20;;;;;;;;;;5085481;28;20052;-81
2023/01/24 14:15:53;;;;;;;12.98;9.65;;;;;;;;;;5081897;28;20052;-81
2023/01/24 14:18:59;;;;;;;14.77;9.05;;;;;;;;;;5080581;28;20083;-81
2023/01/24 14:21:34;;;;;;;14.52;9.68;;;;;;;;;;5103356;28;20071;-81
2023/01/24 14:24:06;;;;;;;22.60;10.75;;;;;;;;;;5102978;28;20086;-81
2023/01/24 14:26:35;;;;;;;17.58;11.05;;;;;;;;;;5091146;28;20045;-81
2023/01/24 14:29:03;;;;;;;22.10;12.00;;;;;;;;;;5076551;28;20049;-81
2023/01/24 14:31:34;;;;;;;17.88;11.82;;;;;;;;;;5066894;28;20053;-81
2023/01/24 14:34:07;;;;;;;13.82;10.25;;;;;;;;;;5067043;28;20499;-81
2023/01/24 14:36:37;;;;;;;16.17;10.18;;;;;;;;;;5067227;28;20084;-81
2023/01/24 14:39:10;;;;;;;18.10;11.18;;;;;;;;;;5069127;28;20069;-81
2023/01/24 14:41:39;;;;;;;13.00;9.18;;;;;;;;;;5067299;28;20249;-80
2023/01/24 14:44:25;;;;;;;14.82;9.90;;;;;;;;;;5066480;28;20068;-80
2023/01/24 14:46:53;;;;;;;44.15;18.88;;;;;;;;;;5067643;28;20132;-81
2023/01/24 14:49:28;;;;;;;19.63;11.95;;;;;;;;;;5065283;28;20136;-81
2023/01/24 14:51:55;;;;;;;27.55;12.93;;;;;;;;;;5085954;22;20056;-78
2023/01/24 14:54:31;;;;;;;33.53;16.17;;;;;;;;;;5045348;28;20454;-78
2023/01/24 14:56:58;;;;;;;46.83;20.77;;;;;;;;;;5044690;28;20136;-78
2023/01/24 14:59:25;;;;;;;18.52;12.60;;;;;;;;;;5043326;28;20132;-79
2023/01/24 15:01:53;;;;;;;18.10;11.55;;;;;;;;;;5042058;28;20041;-78
2023/01/24 15:04:21;;;;;;;14.50;9.88;;;;;;;;;;5044120;28;20045;-79
2023/01/24 15:07:03;;;;;;;16.25;11.18;;;;;;;;;;5044341;28;20045;-81
2023/01/24 15:09:31;;;;;;;19.52;12.95;;;;;;;;;;5043759;28;20552;-78
2023/01/24 15:12:10;;;;;;;19.17;12.80;;;;;;;;;;5043965;28;20583;-79
2023/01/24 15:14:39;;;;;;;20.75;13.85;;;;;;;;;;5042672;28;20108;-81
2023/01/24 15:17:21;;;;;;;18.17;12.60;;;;;;;;;;5043482;28;20109;-78
2023/01/24 15:19:55;;;;;;;17.00;10.77;;;;;;;;;;5042029;28;20052;-78